sensor_id;sensor_type;location;lat;lon;timestamp;temperature;humidity
51007;DHT22;37034;47.886;-3.904;2023-05-21T00:01:01;16.40;79.10
51007;DHT22;37034;47.886;-3.904;2023-05-21T00:03:28;16.50;78.40
51007;DHT22;37034;47.886;-3.904;2023-05-21T00:05:55;16.50;78.50
51007;DHT22;37034;47.886;-3.904;2023-05-21T00:08:21;16.40;78.60
51007;DHT22;37034;47.886;-3.904;2023-05-21T00:10:47;16.40;79.00
51007;DHT22;37034;47.886;-3.904;2023-05-21T00:13:12;16.40;78.70
51007;DHT22;37034;47.886;-3.904;2023-05-21T00:15:38;16.40;79.00
51007;DHT22;37034;47.886;-3.904;2023-05-21T00:18:04;16.40;78.90
51007;DHT22;37034;47.886;-3.904;2023-05-21T00:20:30;16.30;79.00
51007;DHT22;37034;47.886;-3.904;2023-05-21T00:22:57;16.30;79.10
51007;DHT22;37034;47.886;-3.904;2023-05-21T00:25:23;16.30;79.10
51007;DHT22;37034;47.886;-3.904;2023-05-21T00:27:48;16.30;79.20
51007;DHT22;37034;47.886;-3.904;2023-05-21T00:30:14;16.30;79.10
51007;DHT22;37034;47.886;-3.904;2023-05-21T00:32:41;16.20;79.30
51007;DHT22;37034;47.886;-3.904;2023-05-21T00:35:07;16.10;79.60
51007;DHT22;37034;47.886;-3.904;2023-05-21T00:37:32;16.10;80.20
51007;DHT22;37034;47.886;-3.904;2023-05-21T00:40:02;16.10;79.50
51007;DHT22;37034;47.886;-3.904;2023-05-21T00:42:30;16.10;80.10
51007;DHT22;37034;47.886;-3.904;2023-05-21T00:44:56;15.90;80.40
51007;DHT22;37034;47.886;-3.904;2023-05-21T00:47:23;15.80;80.40
51007;DHT22;37034;47.886;-3.904;2023-05-21T00:49:49;15.90;80.20
51007;DHT22;37034;47.886;-3.904;2023-05-21T00:52:17;15.70;80.60
51007;DHT22;37034;47.886;-3.904;2023-05-21T00:54:46;15.70;80.80
51007;DHT22;37034;47.886;-3.904;2023-05-21T00:57:13;15.80;80.60
51007;DHT22;37034;47.886;-3.904;2023-05-21T00:59:38;15.80;80.50
51007;DHT22;37034;47.886;-3.904;2023-05-21T01:02:04;15.80;80.50
51007;DHT22;37034;47.886;-3.904;2023-05-21T01:04:31;15.90;80.50
51007;DHT22;37034;47.886;-3.904;2023-05-21T01:06:56;15.90;80.80
51007;DHT22;37034;47.886;-3.904;2023-05-21T01:09:24;15.80;80.70
51007;DHT22;37034;47.886;-3.904;2023-05-21T01:11:51;15.80;80.50
51007;DHT22;37034;47.886;-3.904;2023-05-21T01:14:18;15.80;80.70
51007;DHT22;37034;47.886;-3.904;2023-05-21T01:16:46;15.80;80.40
51007;DHT22;37034;47.886;-3.904;2023-05-21T01:19:16;15.90;81.10
51007;DHT22;37034;47.886;-3.904;2023-05-21T01:21:49;15.80;80.60
51007;DHT22;37034;47.886;-3.904;2023-05-21T01:24:15;15.80;80.50
51007;DHT22;37034;47.886;-3.904;2023-05-21T01:26:41;15.80;80.70
51007;DHT22;37034;47.886;-3.904;2023-05-21T01:29:09;15.50;81.00
51007;DHT22;37034;47.886;-3.904;2023-05-21T01:34:15;15.60;81.00
51007;DHT22;37034;47.886;-3.904;2023-05-21T01:37:00;15.70;81.00
51007;DHT22;37034;47.886;-3.904;2023-05-21T01:39:33;15.70;80.80
51007;DHT22;37034;47.886;-3.904;2023-05-21T01:42:01;15.60;81.00
51007;DHT22;37034;47.886;-3.904;2023-05-21T01:44:27;15.60;81.10
51007;DHT22;37034;47.886;-3.904;2023-05-21T01:46:55;15.60;81.20
51007;DHT22;37034;47.886;-3.904;2023-05-21T01:49:21;15.50;81.40
51007;DHT22;37034;47.886;-3.904;2023-05-21T01:51:47;15.50;81.30
51007;DHT22;37034;47.886;-3.904;2023-05-21T01:54:13;15.50;81.20
51007;DHT22;37034;47.886;-3.904;2023-05-21T01:56:39;15.50;81.20
51007;DHT22;37034;47.886;-3.904;2023-05-21T01:59:04;15.50;81.20
51007;DHT22;37034;47.886;-3.904;2023-05-21T02:01:30;15.50;81.00
51007;DHT22;37034;47.886;-3.904;2023-05-21T02:03:56;15.50;80.90
51007;DHT22;37034;47.886;-3.904;2023-05-21T02:06:22;15.60;80.80
51007;DHT22;37034;47.886;-3.904;2023-05-21T02:08:48;15.50;80.70
51007;DHT22;37034;47.886;-3.904;2023-05-21T02:11:14;15.40;81.00
51007;DHT22;37034;47.886;-3.904;2023-05-21T02:13:39;15.40;81.00
51007;DHT22;37034;47.886;-3.904;2023-05-21T02:16:08;15.30;81.00
51007;DHT22;37034;47.886;-3.904;2023-05-21T02:18:40;15.40;81.10
51007;DHT22;37034;47.886;-3.904;2023-05-21T02:21:09;15.40;81.30
51007;DHT22;37034;47.886;-3.904;2023-05-21T02:23:38;15.40;81.10
51007;DHT22;37034;47.886;-3.904;2023-05-21T02:26:03;15.40;81.10
51007;DHT22;37034;47.886;-3.904;2023-05-21T02:28:29;15.30;81.30
51007;DHT22;37034;47.886;-3.904;2023-05-21T02:30:55;15.30;81.20
51007;DHT22;37034;47.886;-3.904;2023-05-21T02:33:21;15.30;81.30
51007;DHT22;37034;47.886;-3.904;2023-05-21T02:35:47;15.40;81.20
51007;DHT22;37034;47.886;-3.904;2023-05-21T02:38:13;15.40;81.30
51007;DHT22;37034;47.886;-3.904;2023-05-21T02:40:46;15.30;81.50
51007;DHT22;37034;47.886;-3.904;2023-05-21T02:43:12;15.20;81.80
51007;DHT22;37034;47.886;-3.904;2023-05-21T02:45:38;15.20;81.60
51007;DHT22;37034;47.886;-3.904;2023-05-21T02:48:03;15.20;81.70
51007;DHT22;37034;47.886;-3.904;2023-05-21T02:50:29;15.10;81.90
51007;DHT22;37034;47.886;-3.904;2023-05-21T02:52:55;15.10;82.40
51007;DHT22;37034;47.886;-3.904;2023-05-21T02:55:21;15.10;82.40
51007;DHT22;37034;47.886;-3.904;2023-05-21T02:57:47;15.00;82.40
51007;DHT22;37034;47.886;-3.904;2023-05-21T03:00:13;15.00;82.30
51007;DHT22;37034;47.886;-3.904;2023-05-21T03:02:39;15.20;82.30
51007;DHT22;37034;47.886;-3.904;2023-05-21T03:05:05;15.10;82.40
51007;DHT22;37034;47.886;-3.904;2023-05-21T03:07:31;15.20;82.10
51007;DHT22;37034;47.886;-3.904;2023-05-21T03:09:56;15.10;82.20
51007;DHT22;37034;47.886;-3.904;2023-05-21T03:12:22;15.10;82.30
51007;DHT22;37034;47.886;-3.904;2023-05-21T03:14:48;15.10;82.40
51007;DHT22;37034;47.886;-3.904;2023-05-21T03:17:16;15.20;82.10
51007;DHT22;37034;47.886;-3.904;2023-05-21T03:19:42;15.20;82.20
51007;DHT22;37034;47.886;-3.904;2023-05-21T03:22:09;15.00;82.40
51007;DHT22;37034;47.886;-3.904;2023-05-21T03:24:39;15.00;82.50
51007;DHT22;37034;47.886;-3.904;2023-05-21T03:27:06;15.00;82.70
51007;DHT22;37034;47.886;-3.904;2023-05-21T03:29:32;15.10;82.20
51007;DHT22;37034;47.886;-3.904;2023-05-21T03:31:59;15.20;82.10
51007;DHT22;37034;47.886;-3.904;2023-05-21T03:34:25;15.20;81.90
51007;DHT22;37034;47.886;-3.904;2023-05-21T03:36:50;15.10;82.20
51007;DHT22;37034;47.886;-3.904;2023-05-21T03:39:16;15.00;82.40
51007;DHT22;37034;47.886;-3.904;2023-05-21T03:41:42;15.10;82.50
51007;DHT22;37034;47.886;-3.904;2023-05-21T03:44:08;15.10;82.40
51007;DHT22;37034;47.886;-3.904;2023-05-21T03:46:33;15.10;82.50
51007;DHT22;37034;47.886;-3.904;2023-05-21T03:48:59;15.10;82.40
51007;DHT22;37034;47.886;-3.904;2023-05-21T03:51:24;15.00;82.60
51007;DHT22;37034;47.886;-3.904;2023-05-21T03:53:50;15.00;82.80
51007;DHT22;37034;47.886;-3.904;2023-05-21T03:56:16;14.90;82.90
51007;DHT22;37034;47.886;-3.904;2023-05-21T03:58:42;14.90;82.90
51007;DHT22;37034;47.886;-3.904;2023-05-21T04:01:08;14.90;83.10
51007;DHT22;37034;47.886;-3.904;2023-05-21T04:03:35;15.00;82.90
51007;DHT22;37034;47.886;-3.904;2023-05-21T04:06:01;15.00;82.90
51007;DHT22;37034;47.886;-3.904;2023-05-21T04:08:27;15.00;82.80
51007;DHT22;37034;47.886;-3.904;2023-05-21T04:10:53;15.00;82.80
51007;DHT22;37034;47.886;-3.904;2023-05-21T04:13:18;14.90;82.90
51007;DHT22;37034;47.886;-3.904;2023-05-21T04:15:44;14.90;83.10
51007;DHT22;37034;47.886;-3.904;2023-05-21T04:18:11;14.90;83.30
51007;DHT22;37034;47.886;-3.904;2023-05-21T04:20:38;14.80;82.90
51007;DHT22;37034;47.886;-3.904;2023-05-21T04:23:04;14.80;82.90
51007;DHT22;37034;47.886;-3.904;2023-05-21T04:25:29;14.80;83.20
51007;DHT22;37034;47.886;-3.904;2023-05-21T04:27:55;14.60;83.20
51007;DHT22;37034;47.886;-3.904;2023-05-21T04:30:21;14.70;83.20
51007;DHT22;37034;47.886;-3.904;2023-05-21T04:32:48;14.50;83.20
51007;DHT22;37034;47.886;-3.904;2023-05-21T04:35:14;14.40;83.80
51007;DHT22;37034;47.886;-3.904;2023-05-21T04:37:40;14.50;83.60
51007;DHT22;37034;47.886;-3.904;2023-05-21T04:40:09;14.50;83.60
51007;DHT22;37034;47.886;-3.904;2023-05-21T04:42:35;14.50;83.50
51007;DHT22;37034;47.886;-3.904;2023-05-21T04:45:01;14.50;83.40
51007;DHT22;37034;47.886;-3.904;2023-05-21T04:47:26;14.60;83.50
51007;DHT22;37034;47.886;-3.904;2023-05-21T04:49:55;14.50;83.30
51007;DHT22;37034;47.886;-3.904;2023-05-21T04:52:20;14.60;83.20
51007;DHT22;37034;47.886;-3.904;2023-05-21T04:54:46;14.60;82.80
51007;DHT22;37034;47.886;-3.904;2023-05-21T04:57:12;14.50;82.90
51007;DHT22;37034;47.886;-3.904;2023-05-21T04:59:37;14.50;83.00
51007;DHT22;37034;47.886;-3.904;2023-05-21T05:02:04;14.70;82.60
51007;DHT22;37034;47.886;-3.904;2023-05-21T05:04:30;14.60;82.30
51007;DHT22;37034;47.886;-3.904;2023-05-21T05:06:56;14.60;82.20
51007;DHT22;37034;47.886;-3.904;2023-05-21T05:09:22;14.80;81.90
51007;DHT22;37034;47.886;-3.904;2023-05-21T05:11:50;14.70;81.40
51007;DHT22;37034;47.886;-3.904;2023-05-21T05:14:15;14.70;81.30
51007;DHT22;37034;47.886;-3.904;2023-05-21T05:16:41;14.60;81.40
51007;DHT22;37034;47.886;-3.904;2023-05-21T05:19:07;14.70;81.30
51007;DHT22;37034;47.886;-3.904;2023-05-21T05:21:33;14.70;81.00
51007;DHT22;37034;47.886;-3.904;2023-05-21T05:23:59;14.80;80.10
51007;DHT22;37034;47.886;-3.904;2023-05-21T05:26:25;14.70;80.60
51007;DHT22;37034;47.886;-3.904;2023-05-21T05:28:51;14.80;80.50
51007;DHT22;37034;47.886;-3.904;2023-05-21T05:31:16;14.90;79.80
51007;DHT22;37034;47.886;-3.904;2023-05-21T05:33:42;14.80;79.70
51007;DHT22;37034;47.886;-3.904;2023-05-21T05:36:08;14.70;79.80
51007;DHT22;37034;47.886;-3.904;2023-05-21T05:38:34;14.80;79.30
51007;DHT22;37034;47.886;-3.904;2023-05-21T05:41:00;14.80;79.50
51007;DHT22;37034;47.886;-3.904;2023-05-21T05:43:25;14.80;79.00
51007;DHT22;37034;47.886;-3.904;2023-05-21T05:45:51;14.70;79.60
51007;DHT22;37034;47.886;-3.904;2023-05-21T05:48:17;14.80;79.10
51007;DHT22;37034;47.886;-3.904;2023-05-21T05:50:44;14.80;79.40
51007;DHT22;37034;47.886;-3.904;2023-05-21T05:53:10;15.00;78.90
51007;DHT22;37034;47.886;-3.904;2023-05-21T05:55:38;14.90;78.80
51007;DHT22;37034;47.886;-3.904;2023-05-21T05:58:04;14.90;78.50
51007;DHT22;37034;47.886;-3.904;2023-05-21T06:00:30;15.10;78.20
51007;DHT22;37034;47.886;-3.904;2023-05-21T06:02:56;15.00;78.10
51007;DHT22;37034;47.886;-3.904;2023-05-21T06:05:22;15.00;78.20
51007;DHT22;37034;47.886;-3.904;2023-05-21T06:07:47;14.80;78.40
51007;DHT22;37034;47.886;-3.904;2023-05-21T06:10:13;14.90;78.20
51007;DHT22;37034;47.886;-3.904;2023-05-21T06:12:38;15.10;78.40
51007;DHT22;37034;47.886;-3.904;2023-05-21T06:15:04;15.30;78.10
51007;DHT22;37034;47.886;-3.904;2023-05-21T06:17:31;15.30;77.70
51007;DHT22;37034;47.886;-3.904;2023-05-21T06:19:56;15.40;77.50
51007;DHT22;37034;47.886;-3.904;2023-05-21T06:22:22;15.40;77.50
51007;DHT22;37034;47.886;-3.904;2023-05-21T06:24:47;15.40;77.90
51007;DHT22;37034;47.886;-3.904;2023-05-21T06:27:13;15.50;77.80
51007;DHT22;37034;47.886;-3.904;2023-05-21T06:29:39;15.70;77.20
51007;DHT22;37034;47.886;-3.904;2023-05-21T06:32:06;15.80;76.80
51007;DHT22;37034;47.886;-3.904;2023-05-21T06:34:32;15.80;76.90
51007;DHT22;37034;47.886;-3.904;2023-05-21T06:36:57;15.90;76.90
51007;DHT22;37034;47.886;-3.904;2023-05-21T06:39:23;16.00;76.00
51007;DHT22;37034;47.886;-3.904;2023-05-21T06:41:49;15.70;75.80
51007;DHT22;37034;47.886;-3.904;2023-05-21T06:44:15;15.90;76.70
51007;DHT22;37034;47.886;-3.904;2023-05-21T06:46:41;16.10;76.30
51007;DHT22;37034;47.886;-3.904;2023-05-21T06:49:07;16.50;76.00
51007;DHT22;37034;47.886;-3.904;2023-05-21T06:51:32;16.60;74.60
51007;DHT22;37034;47.886;-3.904;2023-05-21T06:53:58;16.70;74.50
51007;DHT22;37034;47.886;-3.904;2023-05-21T06:56:24;16.80;74.00
51007;DHT22;37034;47.886;-3.904;2023-05-21T06:58:50;17.10;73.20
51007;DHT22;37034;47.886;-3.904;2023-05-21T07:01:16;17.00;73.10
51007;DHT22;37034;47.886;-3.904;2023-05-21T07:03:42;17.10;73.40
51007;DHT22;37034;47.886;-3.904;2023-05-21T07:06:07;17.10;73.20
51007;DHT22;37034;47.886;-3.904;2023-05-21T07:08:33;17.10;73.00
51007;DHT22;37034;47.886;-3.904;2023-05-21T07:10:58;17.00;73.40
51007;DHT22;37034;47.886;-3.904;2023-05-21T07:13:24;17.10;73.30
51007;DHT22;37034;47.886;-3.904;2023-05-21T07:15:50;17.50;73.30
51007;DHT22;37034;47.886;-3.904;2023-05-21T07:18:15;17.50;72.80
51007;DHT22;37034;47.886;-3.904;2023-05-21T07:20:41;17.20;71.70
51007;DHT22;37034;47.886;-3.904;2023-05-21T07:23:07;17.20;73.60
51007;DHT22;37034;47.886;-3.904;2023-05-21T07:25:32;17.40;71.80
51007;DHT22;37034;47.886;-3.904;2023-05-21T07:27:58;17.40;71.40
51007;DHT22;37034;47.886;-3.904;2023-05-21T07:30:24;17.20;71.80
51007;DHT22;37034;47.886;-3.904;2023-05-21T07:32:49;17.30;73.30
51007;DHT22;37034;47.886;-3.904;2023-05-21T07:35:15;17.60;72.80
51007;DHT22;37034;47.886;-3.904;2023-05-21T07:37:41;17.90;71.90
51007;DHT22;37034;47.886;-3.904;2023-05-21T07:40:07;18.00;71.60
51007;DHT22;37034;47.886;-3.904;2023-05-21T07:42:32;18.00;71.50
51007;DHT22;37034;47.886;-3.904;2023-05-21T07:44:58;18.20;70.80
51007;DHT22;37034;47.886;-3.904;2023-05-21T07:47:24;18.40;69.50
51007;DHT22;37034;47.886;-3.904;2023-05-21T07:49:50;18.40;71.40
51007;DHT22;37034;47.886;-3.904;2023-05-21T07:52:15;18.30;71.20
51007;DHT22;37034;47.886;-3.904;2023-05-21T07:54:41;18.30;70.80
51007;DHT22;37034;47.886;-3.904;2023-05-21T07:57:06;18.50;71.30
51007;DHT22;37034;47.886;-3.904;2023-05-21T07:59:32;18.70;71.50
51007;DHT22;37034;47.886;-3.904;2023-05-21T08:01:58;18.80;71.40
51007;DHT22;37034;47.886;-3.904;2023-05-21T08:04:24;19.00;71.20
51007;DHT22;37034;47.886;-3.904;2023-05-21T08:06:50;19.10;71.00
51007;DHT22;37034;47.886;-3.904;2023-05-21T08:09:16;19.20;70.90
51007;DHT22;37034;47.886;-3.904;2023-05-21T08:11:42;19.10;71.00
51007;DHT22;37034;47.886;-3.904;2023-05-21T08:14:07;19.10;70.70
51007;DHT22;37034;47.886;-3.904;2023-05-21T08:16:34;19.10;71.00
51007;DHT22;37034;47.886;-3.904;2023-05-21T08:19:01;19.10;71.00
51007;DHT22;37034;47.886;-3.904;2023-05-21T08:21:26;19.00;70.00
51007;DHT22;37034;47.886;-3.904;2023-05-21T08:23:52;19.00;70.50
51007;DHT22;37034;47.886;-3.904;2023-05-21T08:26:18;19.20;71.30
51007;DHT22;37034;47.886;-3.904;2023-05-21T08:28:43;19.40;71.40
51007;DHT22;37034;47.886;-3.904;2023-05-21T08:31:10;19.50;70.90
51007;DHT22;37034;47.886;-3.904;2023-05-21T08:33:37;19.70;70.30
51007;DHT22;37034;47.886;-3.904;2023-05-21T08:36:06;19.90;70.30
51007;DHT22;37034;47.886;-3.904;2023-05-21T08:38:31;19.80;68.60
51007;DHT22;37034;47.886;-3.904;2023-05-21T08:40:58;19.90;69.40
51007;DHT22;37034;47.886;-3.904;2023-05-21T08:43:27;19.80;67.80
51007;DHT22;37034;47.886;-3.904;2023-05-21T08:45:55;19.50;68.30
51007;DHT22;37034;47.886;-3.904;2023-05-21T08:48:22;19.50;69.00
51007;DHT22;37034;47.886;-3.904;2023-05-21T08:50:53;19.80;69.20
51007;DHT22;37034;47.886;-3.904;2023-05-21T08:53:19;19.80;67.60
51007;DHT22;37034;47.886;-3.904;2023-05-21T08:55:45;19.90;66.50
51007;DHT22;37034;47.886;-3.904;2023-05-21T08:58:11;19.70;67.40
51007;DHT22;37034;47.886;-3.904;2023-05-21T09:00:38;19.80;67.80
51007;DHT22;37034;47.886;-3.904;2023-05-21T09:03:04;20.10;67.70
51007;DHT22;37034;47.886;-3.904;2023-05-21T09:05:39;20.00;65.00
51007;DHT22;37034;47.886;-3.904;2023-05-21T09:08:05;20.00;66.70
51007;DHT22;37034;47.886;-3.904;2023-05-21T09:10:38;20.00;65.40
51007;DHT22;37034;47.886;-3.904;2023-05-21T09:13:05;20.00;66.10
51007;DHT22;37034;47.886;-3.904;2023-05-21T09:15:32;20.10;65.80
51007;DHT22;37034;47.886;-3.904;2023-05-21T09:17:58;20.20;67.20
51007;DHT22;37034;47.886;-3.904;2023-05-21T09:20:25;20.50;66.60
51007;DHT22;37034;47.886;-3.904;2023-05-21T09:22:51;20.60;65.80
51007;DHT22;37034;47.886;-3.904;2023-05-21T09:25:22;20.90;64.40
51007;DHT22;37034;47.886;-3.904;2023-05-21T09:27:48;21.00;65.50
51007;DHT22;37034;47.886;-3.904;2023-05-21T09:30:15;21.00;65.50
51007;DHT22;37034;47.886;-3.904;2023-05-21T09:32:42;21.30;64.30
51007;DHT22;37034;47.886;-3.904;2023-05-21T09:35:11;21.40;63.20
51007;DHT22;37034;47.886;-3.904;2023-05-21T09:37:46;21.10;62.80
51007;DHT22;37034;47.886;-3.904;2023-05-21T09:40:16;21.20;64.40
51007;DHT22;37034;47.886;-3.904;2023-05-21T09:42:49;21.30;64.00
51007;DHT22;37034;47.886;-3.904;2023-05-21T09:45:23;21.50;61.90
51007;DHT22;37034;47.886;-3.904;2023-05-21T09:47:50;21.50;61.70
51007;DHT22;37034;47.886;-3.904;2023-05-21T09:50:21;21.50;60.40
51007;DHT22;37034;47.886;-3.904;2023-05-21T09:52:48;21.50;61.90
51007;DHT22;37034;47.886;-3.904;2023-05-21T09:55:25;21.70;61.60
51007;DHT22;37034;47.886;-3.904;2023-05-21T09:57:52;21.60;61.40
51007;DHT22;37034;47.886;-3.904;2023-05-21T10:00:23;21.70;61.50
51007;DHT22;37034;47.886;-3.904;2023-05-21T10:02:53;21.50;60.80
51007;DHT22;37034;47.886;-3.904;2023-05-21T10:05:19;21.50;60.80
51007;DHT22;37034;47.886;-3.904;2023-05-21T10:07:50;21.60;60.10
51007;DHT22;37034;47.886;-3.904;2023-05-21T10:10:18;21.50;60.00
51007;DHT22;37034;47.886;-3.904;2023-05-21T10:12:46;21.40;60.10
51007;DHT22;37034;47.886;-3.904;2023-05-21T10:15:16;21.50;59.80
51007;DHT22;37034;47.886;-3.904;2023-05-21T10:17:46;21.70;61.10
51007;DHT22;37034;47.886;-3.904;2023-05-21T10:20:12;22.00;59.50
51007;DHT22;37034;47.886;-3.904;2023-05-21T10:22:39;22.00;60.90
51007;DHT22;37034;47.886;-3.904;2023-05-21T10:25:07;22.00;60.70
51007;DHT22;37034;47.886;-3.904;2023-05-21T10:27:36;22.10;60.80
51007;DHT22;37034;47.886;-3.904;2023-05-21T10:30:04;22.40;60.90
51007;DHT22;37034;47.886;-3.904;2023-05-21T10:32:30;22.50;61.00
51007;DHT22;37034;47.886;-3.904;2023-05-21T10:34:56;22.50;61.10
51007;DHT22;37034;47.886;-3.904;2023-05-21T10:37:23;22.70;60.90
51007;DHT22;37034;47.886;-3.904;2023-05-21T10:39:51;22.90;60.90
51007;DHT22;37034;47.886;-3.904;2023-05-21T10:48:20;22.70;59.40
51007;DHT22;37034;47.886;-3.904;2023-05-21T11:01:36;23.50;61.50
51007;DHT22;37034;47.886;-3.904;2023-05-21T11:04:03;23.70;60.40
51007;DHT22;37034;47.886;-3.904;2023-05-21T11:06:30;23.80;60.00
51007;DHT22;37034;47.886;-3.904;2023-05-21T11:09:01;23.80;60.90
51007;DHT22;37034;47.886;-3.904;2023-05-21T11:11:50;23.50;61.30
51007;DHT22;37034;47.886;-3.904;2023-05-21T11:14:40;23.50;61.20
51007;DHT22;37034;47.886;-3.904;2023-05-21T11:17:35;23.80;60.10
51007;DHT22;37034;47.886;-3.904;2023-05-21T11:20:11;23.70;60.90
51007;DHT22;37034;47.886;-3.904;2023-05-21T11:22:38;23.60;61.20
51007;DHT22;37034;47.886;-3.904;2023-05-21T11:25:04;23.80;62.20
51007;DHT22;37034;47.886;-3.904;2023-05-21T11:27:32;24.00;61.80
51007;DHT22;37034;47.886;-3.904;2023-05-21T11:29:59;24.20;62.20
51007;DHT22;37034;47.886;-3.904;2023-05-21T11:32:27;24.30;61.80
51007;DHT22;37034;47.886;-3.904;2023-05-21T11:34:59;24.30;61.40
51007;DHT22;37034;47.886;-3.904;2023-05-21T11:37:27;24.20;61.20
51007;DHT22;37034;47.886;-3.904;2023-05-21T11:39:58;24.20;62.00
51007;DHT22;37034;47.886;-3.904;2023-05-21T11:42:40;24.20;62.90
51007;DHT22;37034;47.886;-3.904;2023-05-21T11:45:08;24.40;62.70
51007;DHT22;37034;47.886;-3.904;2023-05-21T11:47:34;24.30;63.60
51007;DHT22;37034;47.886;-3.904;2023-05-21T11:50:02;24.60;63.40
51007;DHT22;37034;47.886;-3.904;2023-05-21T11:52:31;24.80;63.50
51007;DHT22;37034;47.886;-3.904;2023-05-21T11:54:59;24.80;61.90
51007;DHT22;37034;47.886;-3.904;2023-05-21T11:57:27;24.70;61.70
51007;DHT22;37034;47.886;-3.904;2023-05-21T11:59:57;24.70;62.00
51007;DHT22;37034;47.886;-3.904;2023-05-21T12:02:24;24.80;62.10
51007;DHT22;37034;47.886;-3.904;2023-05-21T12:04:51;24.40;61.40
51007;DHT22;37034;47.886;-3.904;2023-05-21T12:07:18;24.30;62.70
51007;DHT22;37034;47.886;-3.904;2023-05-21T12:09:48;24.40;63.40
51007;DHT22;37034;47.886;-3.904;2023-05-21T12:12:19;24.60;64.30
51007;DHT22;37034;47.886;-3.904;2023-05-21T12:14:48;24.90;64.60
51007;DHT22;37034;47.886;-3.904;2023-05-21T12:17:21;25.30;64.70
51007;DHT22;37034;47.886;-3.904;2023-05-21T12:19:49;25.40;63.40
51007;DHT22;37034;47.886;-3.904;2023-05-21T12:22:15;25.50;64.10
51007;DHT22;37034;47.886;-3.904;2023-05-21T12:24:41;25.70;64.50
51007;DHT22;37034;47.886;-3.904;2023-05-21T12:27:11;26.00;64.40
51007;DHT22;37034;47.886;-3.904;2023-05-21T12:29:42;26.10;63.80
51007;DHT22;37034;47.886;-3.904;2023-05-21T12:32:10;26.10;62.50
51007;DHT22;37034;47.886;-3.904;2023-05-21T12:34:37;26.00;61.80
51007;DHT22;37034;47.886;-3.904;2023-05-21T12:37:04;25.80;63.00
51007;DHT22;37034;47.886;-3.904;2023-05-21T12:39:36;25.70;62.80
51007;DHT22;37034;47.886;-3.904;2023-05-21T12:42:01;25.80;63.40
51007;DHT22;37034;47.886;-3.904;2023-05-21T12:44:30;25.70;62.60
51007;DHT22;37034;47.886;-3.904;2023-05-21T12:46:57;25.90;62.60
51007;DHT22;37034;47.886;-3.904;2023-05-21T12:49:38;25.90;63.50
51007;DHT22;37034;47.886;-3.904;2023-05-21T12:52:09;25.80;62.30
51007;DHT22;37034;47.886;-3.904;2023-05-21T12:54:40;26.10;62.90
51007;DHT22;37034;47.886;-3.904;2023-05-21T12:57:07;26.40;63.70
51007;DHT22;37034;47.886;-3.904;2023-05-21T13:00:03;26.60;63.50
51007;DHT22;37034;47.886;-3.904;2023-05-21T13:02:33;26.40;62.10
51007;DHT22;37034;47.886;-3.904;2023-05-21T13:05:07;26.50;62.80
51007;DHT22;37034;47.886;-3.904;2023-05-21T13:07:35;26.50;62.40
51007;DHT22;37034;47.886;-3.904;2023-05-21T13:10:02;26.60;63.30
51007;DHT22;37034;47.886;-3.904;2023-05-21T13:12:29;26.80;61.60
51007;DHT22;37034;47.886;-3.904;2023-05-21T13:14:57;26.70;61.20
51007;DHT22;37034;47.886;-3.904;2023-05-21T13:17:24;26.60;61.70
51007;DHT22;37034;47.886;-3.904;2023-05-21T13:20:17;26.50;61.00
51007;DHT22;37034;47.886;-3.904;2023-05-21T13:22:48;26.40;62.80
51007;DHT22;37034;47.886;-3.904;2023-05-21T13:25:16;26.60;62.00
51007;DHT22;37034;47.886;-3.904;2023-05-21T13:27:45;26.50;61.30
51007;DHT22;37034;47.886;-3.904;2023-05-21T13:30:11;26.60;62.10
51007;DHT22;37034;47.886;-3.904;2023-05-21T13:32:38;26.80;62.90
51007;DHT22;37034;47.886;-3.904;2023-05-21T13:35:04;26.90;61.10
51007;DHT22;37034;47.886;-3.904;2023-05-21T13:37:30;26.90;62.10
51007;DHT22;37034;47.886;-3.904;2023-05-21T13:39:56;26.80;61.30
51007;DHT22;37034;47.886;-3.904;2023-05-21T13:42:22;26.80;62.40
51007;DHT22;37034;47.886;-3.904;2023-05-21T13:44:48;26.90;63.40
51007;DHT22;37034;47.886;-3.904;2023-05-21T13:47:14;27.00;63.00
51007;DHT22;37034;47.886;-3.904;2023-05-21T13:49:40;27.00;62.40
51007;DHT22;37034;47.886;-3.904;2023-05-21T13:52:07;27.00;62.00
51007;DHT22;37034;47.886;-3.904;2023-05-21T13:54:33;27.10;62.10
51007;DHT22;37034;47.886;-3.904;2023-05-21T13:56:59;27.00;61.80
51007;DHT22;37034;47.886;-3.904;2023-05-21T13:59:25;27.10;61.80
51007;DHT22;37034;47.886;-3.904;2023-05-21T14:01:51;27.10;62.00
51007;DHT22;37034;47.886;-3.904;2023-05-21T14:04:17;26.90;62.00
51007;DHT22;37034;47.886;-3.904;2023-05-21T14:06:46;26.60;61.60
51007;DHT22;37034;47.886;-3.904;2023-05-21T14:09:12;26.50;61.80
51007;DHT22;37034;47.886;-3.904;2023-05-21T14:11:38;26.30;61.70
51007;DHT22;37034;47.886;-3.904;2023-05-21T14:14:03;26.20;61.80
51007;DHT22;37034;47.886;-3.904;2023-05-21T14:16:30;26.20;62.00
51007;DHT22;37034;47.886;-3.904;2023-05-21T14:18:56;26.30;62.30
51007;DHT22;37034;47.886;-3.904;2023-05-21T14:21:22;26.20;61.90
51007;DHT22;37034;47.886;-3.904;2023-05-21T14:23:48;26.00;61.70
51007;DHT22;37034;47.886;-3.904;2023-05-21T14:26:16;25.80;62.50
51007;DHT22;37034;47.886;-3.904;2023-05-21T14:28:43;25.80;62.30
51007;DHT22;37034;47.886;-3.904;2023-05-21T14:31:10;25.80;62.30
51007;DHT22;37034;47.886;-3.904;2023-05-21T14:33:36;25.80;62.60
51007;DHT22;37034;47.886;-3.904;2023-05-21T14:36:03;25.80;62.30
51007;DHT22;37034;47.886;-3.904;2023-05-21T14:38:29;25.60;63.10
51007;DHT22;37034;47.886;-3.904;2023-05-21T14:40:55;25.70;64.50
51007;DHT22;37034;47.886;-3.904;2023-05-21T14:43:21;26.00;64.20
51007;DHT22;37034;47.886;-3.904;2023-05-21T14:45:47;26.20;63.60
51007;DHT22;37034;47.886;-3.904;2023-05-21T14:48:13;26.20;62.60
51007;DHT22;37034;47.886;-3.904;2023-05-21T14:50:39;26.20;63.00
51007;DHT22;37034;47.886;-3.904;2023-05-21T14:53:05;26.20;62.30
51007;DHT22;37034;47.886;-3.904;2023-05-21T14:55:31;26.30;62.70
51007;DHT22;37034;47.886;-3.904;2023-05-21T14:57:59;26.30;62.70
51007;DHT22;37034;47.886;-3.904;2023-05-21T15:00:25;26.10;62.10
51007;DHT22;37034;47.886;-3.904;2023-05-21T15:02:51;25.90;63.00
51007;DHT22;37034;47.886;-3.904;2023-05-21T15:05:17;25.90;62.60
51007;DHT22;37034;47.886;-3.904;2023-05-21T15:07:42;25.70;63.10
51007;DHT22;37034;47.886;-3.904;2023-05-21T15:10:08;25.80;63.10
51007;DHT22;37034;47.886;-3.904;2023-05-21T15:12:35;25.90;63.20
51007;DHT22;37034;47.886;-3.904;2023-05-21T15:15:01;26.00;64.10
51007;DHT22;37034;47.886;-3.904;2023-05-21T15:17:26;26.20;63.90
51007;DHT22;37034;47.886;-3.904;2023-05-21T15:19:52;26.20;63.20
51007;DHT22;37034;47.886;-3.904;2023-05-21T15:22:18;26.00;62.90
51007;DHT22;37034;47.886;-3.904;2023-05-21T15:24:43;25.90;62.60
51007;DHT22;37034;47.886;-3.904;2023-05-21T15:27:09;26.00;63.40
51007;DHT22;37034;47.886;-3.904;2023-05-21T15:29:35;26.10;63.20
51007;DHT22;37034;47.886;-3.904;2023-05-21T15:32:01;26.00;63.40
51007;DHT22;37034;47.886;-3.904;2023-05-21T15:34:32;25.90;64.00